createdAt,value
2019-01-25T06:33:10.561Z,38.80
2019-01-25T06:38:25.012Z,38.70
2019-01-25T06:43:31.451Z,38.70
2019-01-25T06:48:36.947Z,38.50
2019-01-25T06:53:42.337Z,38.60
2019-01-25T06:58:49.365Z,38.80
2019-01-25T07:04:02.978Z,39.20
2019-01-25T07:09:10.899Z,39.20
2019-01-25T07:14:16.289Z,39.10
2019-01-25T07:19:21.676Z,40.00
2019-01-25T07:24:27.066Z,40.60
2019-01-25T07:29:33.975Z,40.80
2019-01-25T07:34:39.642Z,40.50
2019-01-25T07:39:45.125Z,41.00
2019-01-25T07:44:50.543Z,40.80
2019-01-25T07:49:55.921Z,40.90
2019-01-25T07:55:01.483Z,41.70
2019-01-25T08:00:14.002Z,41.60
2019-01-25T08:05:19.383Z,41.00
2019-01-25T08:10:24.834Z,40.80
2019-01-25T08:15:30.364Z,40.90
2019-01-25T08:20:35.823Z,41.70
2019-01-25T08:25:41.569Z,41.70
2019-01-25T08:30:46.944Z,41.80
2019-01-25T08:35:52.406Z,41.70
2019-01-25T08:40:57.837Z,41.50
2019-01-25T08:46:03.250Z,41.50
2019-01-25T08:51:08.689Z,41.40
2019-01-25T08:56:14.139Z,41.30
2019-01-25T09:01:19.515Z,41.30
2019-01-25T09:06:24.910Z,41.10
2019-01-25T09:11:30.294Z,41.10
2019-01-25T09:16:35.713Z,41.00
2019-01-25T09:21:41.104Z,40.90
2019-01-25T09:26:46.494Z,40.80
2019-01-25T09:31:51.911Z,40.90
2019-01-25T09:36:57.332Z,41.00
2019-01-25T09:42:02.739Z,40.80
2019-01-25T09:47:08.240Z,40.80
2019-01-25T09:52:13.729Z,40.70
2019-01-25T09:57:19.110Z,39.80
2019-01-25T10:02:24.583Z,39.80
2019-01-25T10:12:43.461Z,39.50
2019-01-25T10:17:48.799Z,39.50
2019-01-25T10:22:54.431Z,39.60
2019-01-25T10:27:59.830Z,39.70
2019-01-25T10:33:05.561Z,39.70
2019-01-25T10:38:12.485Z,39.80
2019-01-25T10:43:17.883Z,39.60
2019-01-25T10:48:23.268Z,39.40
2019-01-25T10:53:28.663Z,39.00
2019-01-25T10:58:34.056Z,38.70
2019-01-25T11:03:39.442Z,38.50
2019-01-25T11:08:44.839Z,38.30
2019-01-25T11:13:50.225Z,38.40
2019-01-25T11:18:57.269Z,38.70
2019-01-25T11:24:02.662Z,38.00
2019-01-25T11:29:08.424Z,38.00
2019-01-25T11:34:13.843Z,38.70
2019-01-25T11:39:19.372Z,38.50
2019-01-25T11:44:24.759Z,38.60
2019-01-25T11:49:30.181Z,38.90
2019-01-25T11:54:35.614Z,38.60
2019-01-25T11:59:41.080Z,39.40
2019-01-25T12:04:46.480Z,39.40
2019-01-25T12:09:51.866Z,39.30
2019-01-25T12:14:57.332Z,40.00
2019-01-25T12:20:02.999Z,39.40
2019-01-25T12:25:11.901Z,39.20
2019-01-25T12:30:38.217Z,39.40
2019-01-25T12:35:43.340Z,39.70
2019-01-25T12:40:48.794Z,39.70
2019-01-25T12:45:54.180Z,40.70
2019-01-25T12:51:04.844Z,41.10
2019-01-25T12:56:10.242Z,41.60
2019-01-25T13:01:15.778Z,41.50
2019-01-25T13:06:21.165Z,41.30
2019-01-25T13:11:27.528Z,41.00
2019-01-25T13:16:32.922Z,41.30
2019-01-25T13:21:38.334Z,41.00
2019-01-25T13:26:45.273Z,40.00
2019-01-25T13:31:50.777Z,39.50
2019-01-25T13:36:57.164Z,39.40
2019-01-25T13:42:02.774Z,39.10
2019-01-25T13:47:08.174Z,39.30
2019-01-25T13:52:13.562Z,39.00
2019-01-25T13:57:18.953Z,39.30
2019-01-25T14:02:24.339Z,39.00
2019-01-25T14:07:29.726Z,39.10
2019-01-25T14:12:35.187Z,39.50
2019-01-25T14:18:01.780Z,39.60
2019-01-25T14:23:08.449Z,39.50
2019-01-25T14:28:14.169Z,39.50
2019-01-25T14:33:19.765Z,40.20
2019-01-25T14:38:25.427Z,39.60
2019-01-25T14:43:30.822Z,39.70
2019-01-25T14:48:38.249Z,39.90
2019-01-25T14:53:43.363Z,39.70
2019-01-25T14:58:48.962Z,39.60
2019-01-25T15:03:54.485Z,39.60
2019-01-25T15:09:00.083Z,39.60
2019-01-25T15:14:06.779Z,39.70
2019-01-25T15:19:12.371Z,39.50
2019-01-25T15:24:18.179Z,39.60
2019-01-25T15:29:23.784Z,39.60
2019-01-25T15:34:29.399Z,39.40
2019-01-25T15:39:35.525Z,39.40
2019-01-25T15:44:41.381Z,39.40
2019-01-25T15:49:48.414Z,39.10
2019-01-25T15:54:57.323Z,39.40
2019-01-25T16:00:07.535Z,39.50
2019-01-25T16:05:16.856Z,39.60
2019-01-25T16:10:23.862Z,39.30
2019-01-25T16:15:30.765Z,39.40
2019-01-25T16:20:37.436Z,39.50
2019-01-25T16:25:44.604Z,39.60
2019-01-25T16:30:51.395Z,39.50
2019-01-25T16:35:57.738Z,39.40
2019-01-25T16:41:03.777Z,39.50
2019-01-25T16:46:10.294Z,39.40
2019-01-25T16:51:17.182Z,39.40
2019-01-25T16:56:27.732Z,39.50
2019-01-25T17:01:33.634Z,39.50
2019-01-25T17:06:40.047Z,39.60
2019-01-25T17:11:45.452Z,39.60
2019-01-25T17:16:50.866Z,39.60
2019-01-25T17:21:56.253Z,39.60
2019-01-25T17:27:01.683Z,39.60
2019-01-25T17:32:09.405Z,39.60
2019-01-25T17:37:16.808Z,39.60
2019-01-25T17:42:23.204Z,39.70
2019-01-25T17:47:31.226Z,39.60
2019-01-25T17:52:37.146Z,39.70
2019-01-25T17:57:45.264Z,39.70
2019-01-25T18:02:53.409Z,39.70
2019-01-25T18:08:00.353Z,39.60
2019-01-25T18:13:07.328Z,39.70
2019-01-25T18:18:14.111Z,40.30
2019-01-25T18:23:21.344Z,39.90
2019-01-25T18:28:31.888Z,39.90
2019-01-25T18:33:39.824Z,39.90
2019-01-25T18:38:47.086Z,40.10
2019-01-25T18:43:54.230Z,40.10
2019-01-25T18:49:01.387Z,40.20
2019-01-25T18:54:09.073Z,40.00
2019-01-25T18:59:16.701Z,40.00
2019-01-25T19:04:24.938Z,40.00
2019-01-25T19:09:32.587Z,40.10
2019-01-25T19:14:40.879Z,40.00
2019-01-25T19:19:48.687Z,40.00
2019-01-25T19:24:56.427Z,40.00
2019-01-25T19:30:05.230Z,40.00
2019-01-25T19:35:14.980Z,39.90
2019-01-25T19:40:25.950Z,40.10
2019-01-25T19:45:33.560Z,40.00
2019-01-25T19:50:41.185Z,40.00
2019-01-25T19:55:49.805Z,39.90
2019-01-25T20:00:58.084Z,40.00
2019-01-25T20:06:06.576Z,40.00
2019-01-25T20:11:14.846Z,40.00
2019-01-25T20:16:23.326Z,39.80
2019-01-25T20:21:31.178Z,40.00
2019-01-25T20:26:38.484Z,39.90
2019-01-25T20:31:46.412Z,39.80
2019-01-25T20:36:54.594Z,39.80
2019-01-25T20:42:02.386Z,39.90
2019-01-25T20:47:10.176Z,39.70
2019-01-25T20:52:17.849Z,39.80
2019-01-25T20:57:25.562Z,40.30
2019-01-25T21:02:33.679Z,39.70
2019-01-25T21:07:41.732Z,39.70
2019-01-25T21:12:49.540Z,39.70
2019-01-25T21:17:57.664Z,39.70
2019-01-25T21:23:05.619Z,39.50
2019-01-25T21:28:13.156Z,39.50
2019-01-25T21:33:20.547Z,39.60
2019-01-25T21:38:28.122Z,39.60
2019-01-25T21:43:36.926Z,39.60
2019-01-25T21:48:44.204Z,39.50
2019-01-25T21:53:51.872Z,39.40
2019-01-25T21:58:57.842Z,39.50
2019-01-25T22:04:04.747Z,39.50
2019-01-25T22:09:11.589Z,39.40
2019-01-25T22:14:18.450Z,39.50
2019-01-25T22:19:26.589Z,39.50
2019-01-25T22:24:34.082Z,39.40
2019-01-25T22:29:40.444Z,39.50
2019-01-25T22:34:46.577Z,39.40
2019-01-25T22:39:52.187Z,39.40
2019-01-25T22:44:57.885Z,39.40
2019-01-25T22:50:03.838Z,39.50
2019-01-25T22:55:14.354Z,39.60
2019-01-25T23:00:56.137Z,39.60
2019-01-25T23:06:34.936Z,39.60
2019-01-25T23:11:41.882Z,39.60
2019-01-25T23:16:47.273Z,39.50
2019-01-25T23:21:52.665Z,39.50
2019-01-25T23:26:58.050Z,39.60
2019-01-25T23:32:04.847Z,39.50
2019-01-25T23:37:10.234Z,39.40
2019-01-25T23:42:15.628Z,39.40
2019-01-25T23:47:21.011Z,39.40
2019-01-25T23:52:26.395Z,39.30
2019-01-25T23:57:31.860Z,39.20
